sensor_id;sensor_type;location;lat;lon;timestamp;P1;durP1;ratioP1;P2;durP2;ratioP2
28766;SDS011;15921;52.034;20.650;2023-07-20T00:00:52;5.10;;;2.65;;
28766;SDS011;15921;52.034;20.650;2023-07-20T00:03:19;5.68;;;3.25;;
28766;SDS011;15921;52.034;20.650;2023-07-20T00:05:50;8.18;;;2.88;;
28766;SDS011;15921;52.034;20.650;2023-07-20T00:08:16;8.10;;;3.60;;
28766;SDS011;15921;52.034;20.650;2023-07-20T00:10:43;9.23;;;3.65;;
28766;SDS011;15921;52.034;20.650;2023-07-20T00:13:09;6.65;;;3.30;;
28766;SDS011;15921;52.034;20.650;2023-07-20T00:15:38;7.45;;;3.00;;
28766;SDS011;15921;52.034;20.650;2023-07-20T00:18:04;6.05;;;3.13;;
28766;SDS011;15921;52.034;20.650;2023-07-20T00:20:30;8.15;;;3.50;;
28766;SDS011;15921;52.034;20.650;2023-07-20T00:22:56;7.15;;;3.58;;
28766;SDS011;15921;52.034;20.650;2023-07-20T00:25:25;8.25;;;3.78;;
28766;SDS011;15921;52.034;20.650;2023-07-20T00:27:51;8.38;;;3.05;;
28766;SDS011;15921;52.034;20.650;2023-07-20T00:30:17;7.03;;;3.00;;
28766;SDS011;15921;52.034;20.650;2023-07-20T00:32:43;7.97;;;3.75;;
28766;SDS011;15921;52.034;20.650;2023-07-20T00:35:09;9.05;;;3.65;;
28766;SDS011;15921;52.034;20.650;2023-07-20T00:37:36;8.77;;;3.40;;
28766;SDS011;15921;52.034;20.650;2023-07-20T00:40:02;7.20;;;3.40;;
28766;SDS011;15921;52.034;20.650;2023-07-20T00:42:32;7.72;;;3.45;;
28766;SDS011;15921;52.034;20.650;2023-07-20T00:44:58;7.28;;;3.70;;
28766;SDS011;15921;52.034;20.650;2023-07-20T00:47:24;10.38;;;3.42;;
28766;SDS011;15921;52.034;20.650;2023-07-20T00:49:50;9.77;;;3.85;;
28766;SDS011;15921;52.034;20.650;2023-07-20T00:52:17;7.82;;;3.90;;
28766;SDS011;15921;52.034;20.650;2023-07-20T00:54:45;12.98;;;3.85;;
28766;SDS011;15921;52.034;20.650;2023-07-20T00:57:12;7.80;;;3.90;;
28766;SDS011;15921;52.034;20.650;2023-07-20T00:59:39;8.57;;;3.72;;
28766;SDS011;15921;52.034;20.650;2023-07-20T01:02:05;10.32;;;3.58;;
28766;SDS011;15921;52.034;20.650;2023-07-20T01:04:31;4.75;;;3.10;;
28766;SDS011;15921;52.034;20.650;2023-07-20T01:07:00;4.80;;;3.00;;
28766;SDS011;15921;52.034;20.650;2023-07-20T01:09:44;6.50;;;2.80;;
28766;SDS011;15921;52.034;20.650;2023-07-20T01:12:18;6.78;;;3.42;;
28766;SDS011;15921;52.034;20.650;2023-07-20T01:14:51;8.40;;;3.13;;
28766;SDS011;15921;52.034;20.650;2023-07-20T01:17:17;8.38;;;3.78;;
28766;SDS011;15921;52.034;20.650;2023-07-20T01:19:43;9.77;;;3.38;;
28766;SDS011;15921;52.034;20.650;2023-07-20T01:22:10;8.10;;;3.95;;
28766;SDS011;15921;52.034;20.650;2023-07-20T01:32:56;10.98;;;4.03;;
28766;SDS011;15921;52.034;20.650;2023-07-20T01:35:23;7.57;;;3.60;;
28766;SDS011;15921;52.034;20.650;2023-07-20T01:37:53;6.40;;;4.03;;
28766;SDS011;15921;52.034;20.650;2023-07-20T01:40:19;10.90;;;3.90;;
28766;SDS011;15921;52.034;20.650;2023-07-20T01:42:46;8.77;;;3.88;;
28766;SDS011;15921;52.034;20.650;2023-07-20T01:45:13;10.10;;;3.97;;
28766;SDS011;15921;52.034;20.650;2023-07-20T01:47:39;6.15;;;4.13;;
28766;SDS011;15921;52.034;20.650;2023-07-20T01:50:05;7.00;;;4.07;;
28766;SDS011;15921;52.034;20.650;2023-07-20T01:52:31;11.13;;;4.05;;
28766;SDS011;15921;52.034;20.650;2023-07-20T01:54:57;7.70;;;4.53;;
28766;SDS011;15921;52.034;20.650;2023-07-20T01:57:23;9.15;;;4.30;;
28766;SDS011;15921;52.034;20.650;2023-07-20T01:59:48;10.25;;;4.18;;
28766;SDS011;15921;52.034;20.650;2023-07-20T02:02:14;8.65;;;4.15;;
28766;SDS011;15921;52.034;20.650;2023-07-20T02:04:40;8.60;;;4.15;;
28766;SDS011;15921;52.034;20.650;2023-07-20T02:07:05;8.18;;;4.00;;
28766;SDS011;15921;52.034;20.650;2023-07-20T02:09:31;10.90;;;4.22;;
28766;SDS011;15921;52.034;20.650;2023-07-20T02:11:57;11.25;;;4.20;;
28766;SDS011;15921;52.034;20.650;2023-07-20T02:14:22;7.35;;;3.72;;
28766;SDS011;15921;52.034;20.650;2023-07-20T02:16:48;10.80;;;3.97;;
28766;SDS011;15921;52.034;20.650;2023-07-20T02:19:17;9.13;;;4.15;;
28766;SDS011;15921;52.034;20.650;2023-07-20T02:21:44;8.77;;;4.82;;
28766;SDS011;15921;52.034;20.650;2023-07-20T02:24:09;8.55;;;3.90;;
28766;SDS011;15921;52.034;20.650;2023-07-20T02:26:35;8.75;;;3.95;;
28766;SDS011;15921;52.034;20.650;2023-07-20T02:29:01;7.72;;;4.45;;
28766;SDS011;15921;52.034;20.650;2023-07-20T02:31:29;7.20;;;4.00;;
28766;SDS011;15921;52.034;20.650;2023-07-20T02:33:55;4.65;;;3.95;;
28766;SDS011;15921;52.034;20.650;2023-07-20T02:36:21;8.95;;;4.53;;
28766;SDS011;15921;52.034;20.650;2023-07-20T02:38:47;11.80;;;4.43;;
28766;SDS011;15921;52.034;20.650;2023-07-20T02:41:13;11.93;;;4.90;;
28766;SDS011;15921;52.034;20.650;2023-07-20T02:43:39;10.30;;;4.03;;
28766;SDS011;15921;52.034;20.650;2023-07-20T02:46:04;7.28;;;4.30;;
28766;SDS011;15921;52.034;20.650;2023-07-20T02:48:30;8.40;;;4.10;;
28766;SDS011;15921;52.034;20.650;2023-07-20T02:50:56;8.43;;;3.90;;
28766;SDS011;15921;52.034;20.650;2023-07-20T02:53:21;6.78;;;3.70;;
28766;SDS011;15921;52.034;20.650;2023-07-20T02:55:47;7.03;;;3.88;;
28766;SDS011;15921;52.034;20.650;2023-07-20T02:58:13;8.05;;;4.20;;
28766;SDS011;15921;52.034;20.650;2023-07-20T03:00:38;7.70;;;4.15;;
28766;SDS011;15921;52.034;20.650;2023-07-20T03:03:04;7.82;;;3.90;;
28766;SDS011;15921;52.034;20.650;2023-07-20T03:05:34;8.20;;;3.83;;
28766;SDS011;15921;52.034;20.650;2023-07-20T03:08:00;6.15;;;4.07;;
28766;SDS011;15921;52.034;20.650;2023-07-20T03:10:28;8.90;;;4.15;;
28766;SDS011;15921;52.034;20.650;2023-07-20T03:12:54;11.07;;;4.95;;
28766;SDS011;15921;52.034;20.650;2023-07-20T03:15:19;10.68;;;4.25;;
28766;SDS011;15921;52.034;20.650;2023-07-20T03:17:45;10.10;;;4.43;;
28766;SDS011;15921;52.034;20.650;2023-07-20T03:20:11;9.93;;;4.28;;
28766;SDS011;15921;52.034;20.650;2023-07-20T03:22:37;8.82;;;4.60;;
28766;SDS011;15921;52.034;20.650;2023-07-20T03:25:03;7.07;;;4.20;;
28766;SDS011;15921;52.034;20.650;2023-07-20T03:27:30;7.72;;;4.15;;
28766;SDS011;15921;52.034;20.650;2023-07-20T03:29:55;7.28;;;3.72;;
28766;SDS011;15921;52.034;20.650;2023-07-20T03:32:21;8.27;;;4.70;;
28766;SDS011;15921;52.034;20.650;2023-07-20T03:34:46;5.88;;;3.40;;
28766;SDS011;15921;52.034;20.650;2023-07-20T03:37:12;6.18;;;4.20;;
28766;SDS011;15921;52.034;20.650;2023-07-20T03:39:38;7.65;;;4.03;;
28766;SDS011;15921;52.034;20.650;2023-07-20T03:42:04;7.25;;;4.55;;
28766;SDS011;15921;52.034;20.650;2023-07-20T03:44:31;8.45;;;5.03;;
28766;SDS011;15921;52.034;20.650;2023-07-20T03:46:56;9.80;;;4.78;;
28766;SDS011;15921;52.034;20.650;2023-07-20T03:49:22;10.68;;;4.35;;
28766;SDS011;15921;52.034;20.650;2023-07-20T03:51:48;7.95;;;4.60;;
28766;SDS011;15921;52.034;20.650;2023-07-20T03:54:14;7.43;;;4.68;;
28766;SDS011;15921;52.034;20.650;2023-07-20T03:56:39;9.48;;;4.63;;
28766;SDS011;15921;52.034;20.650;2023-07-20T03:59:05;13.10;;;5.30;;
28766;SDS011;15921;52.034;20.650;2023-07-20T04:01:31;10.60;;;5.13;;
28766;SDS011;15921;52.034;20.650;2023-07-20T04:04:01;9.35;;;5.35;;
28766;SDS011;15921;52.034;20.650;2023-07-20T04:06:31;9.35;;;4.97;;
28766;SDS011;15921;52.034;20.650;2023-07-20T04:08:56;7.57;;;4.20;;
28766;SDS011;15921;52.034;20.650;2023-07-20T04:11:22;8.00;;;4.65;;
28766;SDS011;15921;52.034;20.650;2023-07-20T04:13:48;5.85;;;4.38;;
28766;SDS011;15921;52.034;20.650;2023-07-20T04:16:13;8.50;;;5.00;;
28766;SDS011;15921;52.034;20.650;2023-07-20T04:18:39;9.32;;;5.07;;
28766;SDS011;15921;52.034;20.650;2023-07-20T04:21:05;8.35;;;5.00;;
28766;SDS011;15921;52.034;20.650;2023-07-20T04:23:32;8.57;;;5.10;;
28766;SDS011;15921;52.034;20.650;2023-07-20T04:25:58;8.18;;;4.82;;
28766;SDS011;15921;52.034;20.650;2023-07-20T04:28:24;7.85;;;4.93;;
28766;SDS011;15921;52.034;20.650;2023-07-20T04:30:49;8.55;;;4.70;;
28766;SDS011;15921;52.034;20.650;2023-07-20T04:33:16;9.32;;;4.97;;
28766;SDS011;15921;52.034;20.650;2023-07-20T04:35:53;17.05;;;5.15;;
28766;SDS011;15921;52.034;20.650;2023-07-20T04:38:19;8.23;;;4.63;;
28766;SDS011;15921;52.034;20.650;2023-07-20T04:40:47;9.35;;;4.82;;
28766;SDS011;15921;52.034;20.650;2023-07-20T04:43:14;12.88;;;5.10;;
28766;SDS011;15921;52.034;20.650;2023-07-20T04:45:40;7.40;;;4.72;;
28766;SDS011;15921;52.034;20.650;2023-07-20T04:48:15;8.40;;;5.07;;
28766;SDS011;15921;52.034;20.650;2023-07-20T04:50:41;10.70;;;5.45;;
28766;SDS011;15921;52.034;20.650;2023-07-20T04:53:09;10.80;;;5.65;;
28766;SDS011;15921;52.034;20.650;2023-07-20T04:55:38;6.05;;;4.82;;
28766;SDS011;15921;52.034;20.650;2023-07-20T04:58:05;12.15;;;5.72;;
28766;SDS011;15921;52.034;20.650;2023-07-20T05:00:32;14.38;;;5.55;;
28766;SDS011;15921;52.034;20.650;2023-07-20T05:02:58;12.63;;;6.50;;
28766;SDS011;15921;52.034;20.650;2023-07-20T05:05:24;8.43;;;4.93;;
28766;SDS011;15921;52.034;20.650;2023-07-20T05:07:50;11.13;;;5.85;;
28766;SDS011;15921;52.034;20.650;2023-07-20T05:10:15;8.50;;;5.07;;
28766;SDS011;15921;52.034;20.650;2023-07-20T05:12:41;11.95;;;5.47;;
28766;SDS011;15921;52.034;20.650;2023-07-20T05:15:07;8.38;;;5.43;;
28766;SDS011;15921;52.034;20.650;2023-07-20T05:17:33;8.68;;;5.38;;
28766;SDS011;15921;52.034;20.650;2023-07-20T05:19:59;12.02;;;5.53;;
28766;SDS011;15921;52.034;20.650;2023-07-20T05:22:25;9.23;;;5.32;;
28766;SDS011;15921;52.034;20.650;2023-07-20T05:24:50;6.50;;;4.63;;
28766;SDS011;15921;52.034;20.650;2023-07-20T05:27:16;7.68;;;4.93;;
28766;SDS011;15921;52.034;20.650;2023-07-20T05:29:45;9.38;;;5.70;;
28766;SDS011;15921;52.034;20.650;2023-07-20T05:32:11;7.65;;;5.68;;
28766;SDS011;15921;52.034;20.650;2023-07-20T05:34:40;7.43;;;4.97;;
28766;SDS011;15921;52.034;20.650;2023-07-20T05:37:06;7.03;;;5.50;;
28766;SDS011;15921;52.034;20.650;2023-07-20T05:39:32;10.40;;;5.88;;
28766;SDS011;15921;52.034;20.650;2023-07-20T05:41:58;9.05;;;5.88;;
28766;SDS011;15921;52.034;20.650;2023-07-20T05:44:24;8.68;;;5.30;;
28766;SDS011;15921;52.034;20.650;2023-07-20T05:46:49;8.23;;;5.50;;
28766;SDS011;15921;52.034;20.650;2023-07-20T05:49:15;11.90;;;5.55;;
28766;SDS011;15921;52.034;20.650;2023-07-20T05:51:41;7.20;;;5.10;;
28766;SDS011;15921;52.034;20.650;2023-07-20T05:54:06;8.82;;;5.85;;
28766;SDS011;15921;52.034;20.650;2023-07-20T05:56:33;8.68;;;5.50;;
28766;SDS011;15921;52.034;20.650;2023-07-20T05:58:59;9.60;;;5.63;;
28766;SDS011;15921;52.034;20.650;2023-07-20T06:01:24;10.57;;;5.18;;
28766;SDS011;15921;52.034;20.650;2023-07-20T06:03:52;9.98;;;5.18;;
28766;SDS011;15921;52.034;20.650;2023-07-20T06:06:18;8.02;;;5.50;;
28766;SDS011;15921;52.034;20.650;2023-07-20T06:08:44;7.38;;;5.38;;
28766;SDS011;15921;52.034;20.650;2023-07-20T06:11:10;8.45;;;5.47;;
28766;SDS011;15921;52.034;20.650;2023-07-20T06:13:36;8.68;;;5.00;;
28766;SDS011;15921;52.034;20.650;2023-07-20T06:16:02;6.28;;;4.50;;
28766;SDS011;15921;52.034;20.650;2023-07-20T06:18:28;11.18;;;5.28;;
28766;SDS011;15921;52.034;20.650;2023-07-20T06:20:56;9.50;;;5.30;;
28766;SDS011;15921;52.034;20.650;2023-07-20T06:23:22;7.10;;;4.63;;
28766;SDS011;15921;52.034;20.650;2023-07-20T06:25:47;10.93;;;5.75;;
28766;SDS011;15921;52.034;20.650;2023-07-20T06:28:13;9.95;;;4.78;;
28766;SDS011;15921;52.034;20.650;2023-07-20T06:30:39;7.75;;;5.10;;
28766;SDS011;15921;52.034;20.650;2023-07-20T06:33:05;7.88;;;5.15;;
28766;SDS011;15921;52.034;20.650;2023-07-20T06:35:31;9.88;;;5.85;;
28766;SDS011;15921;52.034;20.650;2023-07-20T06:37:57;9.48;;;5.13;;
28766;SDS011;15921;52.034;20.650;2023-07-20T06:40:25;9.55;;;5.50;;
28766;SDS011;15921;52.034;20.650;2023-07-20T06:42:51;9.43;;;6.68;;
28766;SDS011;15921;52.034;20.650;2023-07-20T06:45:16;8.73;;;5.68;;
28766;SDS011;15921;52.034;20.650;2023-07-20T06:47:42;9.32;;;6.78;;
28766;SDS011;15921;52.034;20.650;2023-07-20T06:50:08;14.02;;;6.68;;
28766;SDS011;15921;52.034;20.650;2023-07-20T06:52:34;9.90;;;6.80;;
28766;SDS011;15921;52.034;20.650;2023-07-20T06:55:01;9.07;;;5.90;;
28766;SDS011;15921;52.034;20.650;2023-07-20T06:57:27;10.25;;;5.95;;
28766;SDS011;15921;52.034;20.650;2023-07-20T06:59:53;9.57;;;5.97;;
28766;SDS011;15921;52.034;20.650;2023-07-20T07:02:20;102.70;;;41.17;;
28766;SDS011;15921;52.034;20.650;2023-07-20T07:04:45;74.32;;;31.60;;
28766;SDS011;15921;52.034;20.650;2023-07-20T07:07:13;16.65;;;9.35;;
28766;SDS011;15921;52.034;20.650;2023-07-20T07:09:40;12.73;;;8.23;;
28766;SDS011;15921;52.034;20.650;2023-07-20T07:12:06;11.68;;;7.03;;
28766;SDS011;15921;52.034;20.650;2023-07-20T07:14:32;10.98;;;6.78;;
28766;SDS011;15921;52.034;20.650;2023-07-20T07:16:58;9.85;;;6.65;;
28766;SDS011;15921;52.034;20.650;2023-07-20T07:19:24;12.70;;;7.18;;
28766;SDS011;15921;52.034;20.650;2023-07-20T07:21:49;11.15;;;6.70;;
28766;SDS011;15921;52.034;20.650;2023-07-20T07:24:16;11.93;;;7.65;;
28766;SDS011;15921;52.034;20.650;2023-07-20T07:26:41;10.82;;;7.22;;
28766;SDS011;15921;52.034;20.650;2023-07-20T07:29:07;8.55;;;6.45;;
28766;SDS011;15921;52.034;20.650;2023-07-20T07:31:34;10.10;;;6.70;;
28766;SDS011;15921;52.034;20.650;2023-07-20T07:34:03;10.40;;;6.63;;
28766;SDS011;15921;52.034;20.650;2023-07-20T07:36:30;10.18;;;6.43;;
28766;SDS011;15921;52.034;20.650;2023-07-20T07:38:56;9.18;;;5.57;;
28766;SDS011;15921;52.034;20.650;2023-07-20T07:41:22;9.45;;;6.53;;
28766;SDS011;15921;52.034;20.650;2023-07-20T07:43:48;10.98;;;7.68;;
28766;SDS011;15921;52.034;20.650;2023-07-20T07:46:13;9.77;;;6.50;;
28766;SDS011;15921;52.034;20.650;2023-07-20T07:48:39;15.85;;;7.00;;
28766;SDS011;15921;52.034;20.650;2023-07-20T07:51:05;10.43;;;6.65;;
28766;SDS011;15921;52.034;20.650;2023-07-20T07:53:31;10.73;;;7.43;;
28766;SDS011;15921;52.034;20.650;2023-07-20T07:55:57;13.98;;;7.35;;
28766;SDS011;15921;52.034;20.650;2023-07-20T07:58:23;11.82;;;7.43;;
28766;SDS011;15921;52.034;20.650;2023-07-20T08:00:49;15.45;;;8.20;;
28766;SDS011;15921;52.034;20.650;2023-07-20T08:03:15;13.25;;;7.70;;
28766;SDS011;15921;52.034;20.650;2023-07-20T08:05:40;10.13;;;6.78;;
28766;SDS011;15921;52.034;20.650;2023-07-20T08:08:07;11.90;;;7.78;;
28766;SDS011;15921;52.034;20.650;2023-07-20T08:10:33;9.32;;;6.68;;
28766;SDS011;15921;52.034;20.650;2023-07-20T08:12:59;11.13;;;6.25;;
28766;SDS011;15921;52.034;20.650;2023-07-20T08:15:25;13.20;;;7.35;;
28766;SDS011;15921;52.034;20.650;2023-07-20T08:17:50;15.60;;;8.13;;
28766;SDS011;15921;52.034;20.650;2023-07-20T08:20:17;12.25;;;7.50;;
28766;SDS011;15921;52.034;20.650;2023-07-20T08:22:43;12.20;;;7.28;;
28766;SDS011;15921;52.034;20.650;2023-07-20T08:25:09;9.50;;;6.97;;
28766;SDS011;15921;52.034;20.650;2023-07-20T08:27:36;11.77;;;6.75;;
28766;SDS011;15921;52.034;20.650;2023-07-20T08:30:03;10.20;;;7.30;;
28766;SDS011;15921;52.034;20.650;2023-07-20T08:32:29;9.52;;;7.05;;
28766;SDS011;15921;52.034;20.650;2023-07-20T08:34:55;12.70;;;7.18;;
28766;SDS011;15921;52.034;20.650;2023-07-20T08:37:21;10.40;;;7.32;;
28766;SDS011;15921;52.034;20.650;2023-07-20T08:39:47;9.98;;;6.85;;
28766;SDS011;15921;52.034;20.650;2023-07-20T08:42:13;11.13;;;7.38;;
28766;SDS011;15921;52.034;20.650;2023-07-20T08:44:41;8.90;;;6.72;;
28766;SDS011;15921;52.034;20.650;2023-07-20T08:47:08;12.93;;;7.03;;
28766;SDS011;15921;52.034;20.650;2023-07-20T08:49:35;11.57;;;7.10;;
28766;SDS011;15921;52.034;20.650;2023-07-20T08:52:04;9.90;;;6.95;;
28766;SDS011;15921;52.034;20.650;2023-07-20T08:54:31;9.13;;;7.03;;
28766;SDS011;15921;52.034;20.650;2023-07-20T08:57:02;11.23;;;6.80;;
28766;SDS011;15921;52.034;20.650;2023-07-20T08:59:29;12.07;;;6.57;;
28766;SDS011;15921;52.034;20.650;2023-07-20T09:01:59;8.80;;;6.20;;
28766;SDS011;15921;52.034;20.650;2023-07-20T09:04:25;10.07;;;6.15;;
28766;SDS011;15921;52.034;20.650;2023-07-20T09:06:51;9.18;;;5.90;;
28766;SDS011;15921;52.034;20.650;2023-07-20T09:09:17;8.35;;;4.93;;
28766;SDS011;15921;52.034;20.650;2023-07-20T09:11:43;8.90;;;5.15;;
28766;SDS011;15921;52.034;20.650;2023-07-20T09:14:12;8.98;;;4.97;;
28766;SDS011;15921;52.034;20.650;2023-07-20T09:19:18;6.20;;;4.35;;
28766;SDS011;15921;52.034;20.650;2023-07-20T09:21:44;7.45;;;4.50;;
28766;SDS011;15921;52.034;20.650;2023-07-20T09:24:12;6.57;;;4.40;;
28766;SDS011;15921;52.034;20.650;2023-07-20T09:26:41;6.65;;;3.78;;
28766;SDS011;15921;52.034;20.650;2023-07-20T09:29:08;5.78;;;3.45;;
28766;SDS011;15921;52.034;20.650;2023-07-20T09:31:35;4.85;;;3.67;;
28766;SDS011;15921;52.034;20.650;2023-07-20T09:34:01;5.03;;;3.30;;
28766;SDS011;15921;52.034;20.650;2023-07-20T09:36:27;8.88;;;3.78;;
28766;SDS011;15921;52.034;20.650;2023-07-20T09:38:53;7.38;;;4.05;;
28766;SDS011;15921;52.034;20.650;2023-07-20T09:41:19;6.97;;;3.47;;
28766;SDS011;15921;52.034;20.650;2023-07-20T09:43:46;7.35;;;3.88;;
28766;SDS011;15921;52.034;20.650;2023-07-20T09:46:12;5.40;;;3.72;;
28766;SDS011;15921;52.034;20.650;2023-07-20T09:48:38;4.38;;;3.10;;
28766;SDS011;15921;52.034;20.650;2023-07-20T09:51:04;6.85;;;3.85;;
28766;SDS011;15921;52.034;20.650;2023-07-20T09:53:32;6.85;;;3.40;;
28766;SDS011;15921;52.034;20.650;2023-07-20T09:55:58;4.65;;;2.83;;
28766;SDS011;15921;52.034;20.650;2023-07-20T09:58:25;5.55;;;3.22;;
28766;SDS011;15921;52.034;20.650;2023-07-20T10:00:52;6.38;;;4.35;;
28766;SDS011;15921;52.034;20.650;2023-07-20T10:03:22;5.43;;;3.53;;
28766;SDS011;15921;52.034;20.650;2023-07-20T10:05:57;4.53;;;3.73;;
28766;SDS011;15921;52.034;20.650;2023-07-20T10:08:29;6.38;;;3.05;;
28766;SDS011;15921;52.034;20.650;2023-07-20T10:10:57;6.85;;;3.22;;
28766;SDS011;15921;52.034;20.650;2023-07-20T10:13:29;5.65;;;3.20;;
28766;SDS011;15921;52.034;20.650;2023-07-20T10:15:58;4.45;;;3.60;;
28766;SDS011;15921;52.034;20.650;2023-07-20T10:18:29;5.78;;;3.45;;
28766;SDS011;15921;52.034;20.650;2023-07-20T10:21:00;5.03;;;3.58;;
28766;SDS011;15921;52.034;20.650;2023-07-20T10:23:28;4.53;;;3.30;;
28766;SDS011;15921;52.034;20.650;2023-07-20T10:25:55;8.35;;;3.63;;
28766;SDS011;15921;52.034;20.650;2023-07-20T10:28:22;6.07;;;3.47;;
28766;SDS011;15921;52.034;20.650;2023-07-20T10:30:49;4.45;;;3.53;;
28766;SDS011;15921;52.034;20.650;2023-07-20T10:33:16;3.70;;;3.08;;
28766;SDS011;15921;52.034;20.650;2023-07-20T10:35:51;7.45;;;3.50;;
28766;SDS011;15921;52.034;20.650;2023-07-20T10:38:18;3.70;;;3.03;;
28766;SDS011;15921;52.034;20.650;2023-07-20T10:40:53;5.65;;;3.42;;
28766;SDS011;15921;52.034;20.650;2023-07-20T10:43:20;4.75;;;3.00;;
28766;SDS011;15921;52.034;20.650;2023-07-20T10:45:49;4.40;;;2.88;;
28766;SDS011;15921;52.034;20.650;2023-07-20T10:48:22;4.22;;;3.10;;
28766;SDS011;15921;52.034;20.650;2023-07-20T10:53:38;5.72;;;3.58;;
28766;SDS011;15921;52.034;20.650;2023-07-20T10:56:08;5.50;;;3.47;;
28766;SDS011;15921;52.034;20.650;2023-07-20T10:58:36;7.03;;;2.88;;
28766;SDS011;15921;52.034;20.650;2023-07-20T11:01:04;4.85;;;2.47;;
28766;SDS011;15921;52.034;20.650;2023-07-20T11:03:35;4.72;;;2.67;;
28766;SDS011;15921;52.034;20.650;2023-07-20T11:08:49;4.20;;;2.58;;
28766;SDS011;15921;52.034;20.650;2023-07-20T11:11:27;4.93;;;2.75;;
28766;SDS011;15921;52.034;20.650;2023-07-20T11:13:59;3.72;;;2.17;;
28766;SDS011;15921;52.034;20.650;2023-07-20T11:19:13;3.60;;;2.38;;
28766;SDS011;15921;52.034;20.650;2023-07-20T11:21:45;3.33;;;2.10;;
28766;SDS011;15921;52.034;20.650;2023-07-20T11:24:15;6.82;;;2.40;;
28766;SDS011;15921;52.034;20.650;2023-07-20T11:26:45;4.68;;;2.40;;
28766;SDS011;15921;52.034;20.650;2023-07-20T11:29:18;3.15;;;2.10;;
28766;SDS011;15921;52.034;20.650;2023-07-20T11:31:48;5.95;;;2.50;;
28766;SDS011;15921;52.034;20.650;2023-07-20T11:36:42;4.78;;;2.60;;
28766;SDS011;15921;52.034;20.650;2023-07-20T11:39:12;3.35;;;2.55;;
28766;SDS011;15921;52.034;20.650;2023-07-20T11:41:39;3.70;;;2.60;;
28766;SDS011;15921;52.034;20.650;2023-07-20T11:44:11;3.55;;;2.65;;
28766;SDS011;15921;52.034;20.650;2023-07-20T11:46:38;6.32;;;2.67;;
28766;SDS011;15921;52.034;20.650;2023-07-20T11:49:05;3.80;;;2.83;;
28766;SDS011;15921;52.034;20.650;2023-07-20T11:51:31;6.53;;;2.90;;
28766;SDS011;15921;52.034;20.650;2023-07-20T11:53:57;5.28;;;2.30;;
28766;SDS011;15921;52.034;20.650;2023-07-20T11:56:24;4.38;;;2.88;;
28766;SDS011;15921;52.034;20.650;2023-07-20T11:58:53;6.18;;;2.85;;
28766;SDS011;15921;52.034;20.650;2023-07-20T12:01:20;3.25;;;2.40;;
28766;SDS011;15921;52.034;20.650;2023-07-20T12:03:47;3.03;;;2.72;;
28766;SDS011;15921;52.034;20.650;2023-07-20T12:06:14;3.85;;;2.53;;
28766;SDS011;15921;52.034;20.650;2023-07-20T12:08:43;3.00;;;2.33;;
28766;SDS011;15921;52.034;20.650;2023-07-20T12:11:10;4.47;;;2.60;;
28766;SDS011;15921;52.034;20.650;2023-07-20T12:13:42;3.88;;;2.67;;
28766;SDS011;15921;52.034;20.650;2023-07-20T12:16:13;5.78;;;2.03;;
28766;SDS011;15921;52.034;20.650;2023-07-20T12:18:40;6.43;;;2.45;;
28766;SDS011;15921;52.034;20.650;2023-07-20T12:21:07;2.33;;;1.88;;
28766;SDS011;15921;52.034;20.650;2023-07-20T12:23:40;1.67;;;1.40;;
28766;SDS011;15921;52.034;20.650;2023-07-20T12:26:07;2.67;;;1.67;;
28766;SDS011;15921;52.034;20.650;2023-07-20T12:28:40;2.15;;;1.60;;
28766;SDS011;15921;52.034;20.650;2023-07-20T12:31:06;3.05;;;1.60;;
28766;SDS011;15921;52.034;20.650;2023-07-20T12:33:33;2.40;;;1.65;;
28766;SDS011;15921;52.034;20.650;2023-07-20T12:35:59;2.10;;;1.60;;
28766;SDS011;15921;52.034;20.650;2023-07-20T12:38:26;3.53;;;1.67;;
28766;SDS011;15921;52.034;20.650;2023-07-20T12:40:52;2.03;;;1.58;;
28766;SDS011;15921;52.034;20.650;2023-07-20T12:43:20;2.50;;;1.40;;
28766;SDS011;15921;52.034;20.650;2023-07-20T12:45:46;1.85;;;1.48;;
28766;SDS011;15921;52.034;20.650;2023-07-20T12:48:12;2.03;;;1.60;;
28766;SDS011;15921;52.034;20.650;2023-07-20T12:50:38;1.77;;;1.40;;
28766;SDS011;15921;52.034;20.650;2023-07-20T12:53:04;3.45;;;1.40;;
28766;SDS011;15921;52.034;20.650;2023-07-20T12:55:29;2.88;;;1.50;;
28766;SDS011;15921;52.034;20.650;2023-07-20T12:57:55;2.83;;;1.58;;
28766;SDS011;15921;52.034;20.650;2023-07-20T13:00:21;5.28;;;1.83;;
28766;SDS011;15921;52.034;20.650;2023-07-20T13:02:52;1.90;;;1.50;;
28766;SDS011;15921;52.034;20.650;2023-07-20T13:05:18;3.40;;;1.80;;
28766;SDS011;15921;52.034;20.650;2023-07-20T13:07:43;3.22;;;1.83;;
28766;SDS011;15921;52.034;20.650;2023-07-20T13:10:11;7.15;;;1.30;;
28766;SDS011;15921;52.034;20.650;2023-07-20T13:12:37;2.15;;;1.33;;
28766;SDS011;15921;52.034;20.650;2023-07-20T13:15:04;2.17;;;1.30;;
28766;SDS011;15921;52.034;20.650;2023-07-20T13:17:34;2.25;;;1.60;;
28766;SDS011;15921;52.034;20.650;2023-07-20T13:20:01;1.60;;;1.25;;
28766;SDS011;15921;52.034;20.650;2023-07-20T13:22:29;4.03;;;1.40;;
28766;SDS011;15921;52.034;20.650;2023-07-20T13:24:55;2.40;;;1.23;;
28766;SDS011;15921;52.034;20.650;2023-07-20T13:27:21;1.42;;;1.05;;
28766;SDS011;15921;52.034;20.650;2023-07-20T13:29:47;2.00;;;1.17;;
28766;SDS011;15921;52.034;20.650;2023-07-20T13:32:13;1.75;;;1.23;;
28766;SDS011;15921;52.034;20.650;2023-07-20T13:34:46;2.38;;;1.50;;
28766;SDS011;15921;52.034;20.650;2023-07-20T13:37:12;2.63;;;1.50;;
28766;SDS011;15921;52.034;20.650;2023-07-20T13:39:38;1.55;;;1.33;;
28766;SDS011;15921;52.034;20.650;2023-07-20T13:42:04;4.95;;;1.52;;
28766;SDS011;15921;52.034;20.650;2023-07-20T13:44:31;2.45;;;1.50;;
28766;SDS011;15921;52.034;20.650;2023-07-20T13:46:57;4.90;;;1.40;;
28766;SDS011;15921;52.034;20.650;2023-07-20T13:49:23;5.30;;;1.70;;
28766;SDS011;15921;52.034;20.650;2023-07-20T13:51:49;2.28;;;1.52;;
28766;SDS011;15921;52.034;20.650;2023-07-20T13:54:15;2.53;;;1.45;;
28766;SDS011;15921;52.034;20.650;2023-07-20T13:56:40;2.63;;;1.50;;
28766;SDS011;15921;52.034;20.650;2023-07-20T13:59:06;3.60;;;1.70;;
28766;SDS011;15921;52.034;20.650;2023-07-20T14:01:32;2.97;;;1.52;;
28766;SDS011;15921;52.034;20.650;2023-07-20T14:03:59;3.05;;;1.50;;
28766;SDS011;15921;52.034;20.650;2023-07-20T14:06:26;4.18;;;1.50;;
28766;SDS011;15921;52.034;20.650;2023-07-20T14:08:54;3.45;;;1.60;;
28766;SDS011;15921;52.034;20.650;2023-07-20T14:11:20;2.78;;;1.80;;
28766;SDS011;15921;52.034;20.650;2023-07-20T14:13:45;4.75;;;1.50;;
28766;SDS011;15921;52.034;20.650;2023-07-20T14:16:11;1.90;;;1.60;;
28766;SDS011;15921;52.034;20.650;2023-07-20T14:18:37;2.78;;;1.50;;
28766;SDS011;15921;52.034;20.650;2023-07-20T14:21:02;1.98;;;1.40;;
28766;SDS011;15921;52.034;20.650;2023-07-20T14:23:30;3.25;;;1.80;;
28766;SDS011;15921;52.034;20.650;2023-07-20T14:25:56;2.20;;;1.40;;
28766;SDS011;15921;52.034;20.650;2023-07-20T14:28:21;2.50;;;1.40;;
28766;SDS011;15921;52.034;20.650;2023-07-20T14:30:47;2.22;;;1.35;;
28766;SDS011;15921;52.034;20.650;2023-07-20T14:33:13;2.25;;;1.73;;
28766;SDS011;15921;52.034;20.650;2023-07-20T14:35:38;2.17;;;1.45;;
28766;SDS011;15921;52.034;20.650;2023-07-20T14:38:04;2.35;;;1.45;;
28766;SDS011;15921;52.034;20.650;2023-07-20T14:40:29;1.83;;;1.30;;
28766;SDS011;15921;52.034;20.650;2023-07-20T14:42:55;2.42;;;1.73;;
28766;SDS011;15921;52.034;20.650;2023-07-20T14:45:21;2.08;;;1.42;;
28766;SDS011;15921;52.034;20.650;2023-07-20T14:47:50;2.15;;;1.45;;
28766;SDS011;15921;52.034;20.650;2023-07-20T14:50:19;3.17;;;1.65;;